createdAt,value
2022-10-20T00:01:50.347Z,3.10
2022-10-20T00:03:53.117Z,3.00
2022-10-20T00:05:55.669Z,3.03
2022-10-20T00:07:57.912Z,3.80
2022-10-20T00:10:00.168Z,3.28
2022-10-20T00:12:02.409Z,3.30
2022-10-20T00:14:04.817Z,3.17
2022-10-20T00:16:07.471Z,3.10
2022-10-20T00:18:09.662Z,3.30
2022-10-20T00:20:12.073Z,3.28
2022-10-20T00:22:14.511Z,2.65
2022-10-20T00:24:16.871Z,2.55
2022-10-20T00:26:23.692Z,3.20
2022-10-20T00:28:25.904Z,2.88
2022-10-20T00:30:28.109Z,2.97
2022-10-20T00:32:30.303Z,2.55
2022-10-20T00:34:33.823Z,2.90
2022-10-20T00:36:36.070Z,3.17
2022-10-20T00:38:38.375Z,2.53
2022-10-20T00:40:40.699Z,2.95
2022-10-20T00:42:46.477Z,2.80
2022-10-20T00:44:50.408Z,3.00
2022-10-20T00:46:52.755Z,2.95
2022-10-20T00:48:57.428Z,2.80
2022-10-20T00:50:59.695Z,2.95
2022-10-20T00:53:02.195Z,3.10
2022-10-20T00:55:04.611Z,3.13
2022-10-20T00:57:07.125Z,2.90
2022-10-20T00:59:10.302Z,2.78
2022-10-20T01:01:13.567Z,3.10
2022-10-20T01:03:17.536Z,2.40
2022-10-20T01:05:20.104Z,2.85
2022-10-20T01:07:22.633Z,2.85
2022-10-20T01:09:24.856Z,2.55
2022-10-20T01:11:32.515Z,2.85
2022-10-20T01:13:43.065Z,2.93
2022-10-20T01:15:59.696Z,3.22
2022-10-20T01:18:01.917Z,3.03
2022-10-20T01:20:22.746Z,3.50
2022-10-20T01:22:24.939Z,3.40
2022-10-20T01:24:48.860Z,3.00
2022-10-20T01:26:59.934Z,2.60
2022-10-20T01:29:07.294Z,2.90
2022-10-20T01:31:18.776Z,2.85
2022-10-20T01:33:21.063Z,2.55
2022-10-20T01:35:32.574Z,2.67
2022-10-20T01:37:54.444Z,2.92
2022-10-20T01:40:02.851Z,3.00
2022-10-20T01:42:08.439Z,2.40
2022-10-20T01:44:12.420Z,2.70
2022-10-20T01:46:16.248Z,2.95
2022-10-20T01:48:21.081Z,2.95
2022-10-20T01:50:24.473Z,3.38
2022-10-20T01:52:28.553Z,3.30
2022-10-20T01:54:31.003Z,2.75
2022-10-20T01:56:36.145Z,3.30
2022-10-20T01:58:41.092Z,3.03
2022-10-20T02:00:45.137Z,3.05
2022-10-20T02:02:50.008Z,2.70
2022-10-20T02:05:01.170Z,3.40
2022-10-20T02:07:09.460Z,3.28
2022-10-20T02:09:16.529Z,2.92
2022-10-20T02:11:18.736Z,2.70
2022-10-20T02:13:21.901Z,2.80
2022-10-20T02:15:28.697Z,2.78
2022-10-20T02:17:31.080Z,2.63
2022-10-20T02:19:35.735Z,2.78
2022-10-20T02:21:38.111Z,2.88
2022-10-20T02:23:41.380Z,2.92
2022-10-20T02:25:43.650Z,3.20
2022-10-20T02:27:48.444Z,3.00
2022-10-20T02:29:54.941Z,3.10
2022-10-20T02:31:57.503Z,2.70
2022-10-20T02:33:59.786Z,3.33
2022-10-20T02:36:05.427Z,2.70
2022-10-20T02:38:07.673Z,3.00
2022-10-20T02:40:10.148Z,2.72
2022-10-20T02:42:12.664Z,3.15
2022-10-20T02:44:14.847Z,3.00
2022-10-20T02:46:17.586Z,2.90
2022-10-20T02:48:19.913Z,2.75
2022-10-20T02:50:22.127Z,3.72
2022-10-20T02:52:24.329Z,2.92
2022-10-20T02:54:28.658Z,2.90
2022-10-20T02:56:31.210Z,2.55
2022-10-20T02:58:33.612Z,2.78
2022-10-20T03:00:35.844Z,3.03
2022-10-20T03:02:38.115Z,2.83
2022-10-20T03:04:40.457Z,3.10
2022-10-20T03:06:42.709Z,2.83
2022-10-20T03:08:44.966Z,3.13
2022-10-20T03:10:47.252Z,2.92
2022-10-20T03:12:49.500Z,2.90
2022-10-20T03:14:51.752Z,3.05
2022-10-20T03:16:53.983Z,2.88
2022-10-20T03:18:59.966Z,3.30
2022-10-20T03:21:05.669Z,3.30
2022-10-20T03:23:07.887Z,3.17
2022-10-20T03:25:10.090Z,3.00
2022-10-20T03:27:12.310Z,3.10
2022-10-20T03:29:14.612Z,2.85
2022-10-20T03:31:16.852Z,3.15
2022-10-20T03:33:19.065Z,3.90
2022-10-20T03:35:21.252Z,3.38
2022-10-20T03:37:23.523Z,3.50
2022-10-20T03:39:25.703Z,4.10
2022-10-20T03:41:28.124Z,3.50
2022-10-20T03:43:30.357Z,3.33
2022-10-20T03:45:32.674Z,4.05
2022-10-20T03:47:35.008Z,4.03
2022-10-20T03:49:37.215Z,2.90
2022-10-20T03:51:39.465Z,4.68
2022-10-20T03:53:41.726Z,3.90
2022-10-20T03:55:43.946Z,5.20
2022-10-20T03:57:46.362Z,3.28
2022-10-20T03:59:48.558Z,3.63
2022-10-20T04:01:50.794Z,6.40
2022-10-20T04:03:53.053Z,3.28
2022-10-20T04:05:55.244Z,3.85
2022-10-20T04:07:57.511Z,4.47
2022-10-20T04:10:02.214Z,3.80
2022-10-20T04:12:04.532Z,3.90
2022-10-20T04:14:06.987Z,3.58
2022-10-20T04:16:09.542Z,3.40
2022-10-20T04:18:11.730Z,3.60
2022-10-20T04:20:13.955Z,3.58
2022-10-20T04:22:16.258Z,3.35
2022-10-20T04:24:18.478Z,3.20
2022-10-20T04:26:20.750Z,3.53
2022-10-20T04:28:22.937Z,3.10
2022-10-20T04:30:25.173Z,3.90
2022-10-20T04:32:27.541Z,4.05
2022-10-20T04:34:29.816Z,3.33
2022-10-20T04:36:32.077Z,3.72
2022-10-20T04:38:35.070Z,3.97
2022-10-20T04:40:37.331Z,4.65
2022-10-20T04:42:39.546Z,3.97
2022-10-20T04:44:41.895Z,4.40
2022-10-20T04:46:44.108Z,4.45
2022-10-20T04:48:46.397Z,4.00
2022-10-20T04:50:48.658Z,3.92
2022-10-20T04:52:51.384Z,4.05
2022-10-20T04:54:53.691Z,3.75
2022-10-20T04:56:55.997Z,4.05
2022-10-20T04:58:58.810Z,4.10
2022-10-20T05:01:02.520Z,3.95
2022-10-20T05:03:04.790Z,4.28
2022-10-20T05:05:07.227Z,3.85
2022-10-20T05:07:09.501Z,3.92
2022-10-20T05:09:11.832Z,3.88
2022-10-20T05:11:14.693Z,4.05
2022-10-20T05:13:16.906Z,3.72
2022-10-20T05:15:19.249Z,4.38
2022-10-20T05:17:21.522Z,4.13
2022-10-20T05:19:23.847Z,3.88
2022-10-20T05:21:27.739Z,4.13
2022-10-20T05:23:30.070Z,3.97
2022-10-20T05:25:36.525Z,4.07
2022-10-20T05:27:39.362Z,3.63
2022-10-20T05:29:41.679Z,3.58
2022-10-20T05:31:44.519Z,3.90
2022-10-20T05:33:48.450Z,3.95
2022-10-20T05:35:50.790Z,4.15
2022-10-20T05:37:52.999Z,4.60
2022-10-20T05:39:55.282Z,4.00
2022-10-20T05:41:57.678Z,4.10
2022-10-20T05:44:01.021Z,3.92
2022-10-20T05:46:03.572Z,4.30
2022-10-20T05:48:06.136Z,3.80
2022-10-20T05:50:08.687Z,4.10
2022-10-20T05:52:11.219Z,4.40
2022-10-20T05:54:14.050Z,4.05
2022-10-20T05:56:18.125Z,4.53
2022-10-20T05:58:22.997Z,3.97
2022-10-20T06:00:30.950Z,4.60
2022-10-20T06:02:33.351Z,4.80
2022-10-20T06:04:35.706Z,4.88
2022-10-20T06:06:37.933Z,4.82
2022-10-20T06:08:40.401Z,6.22
2022-10-20T06:10:42.644Z,6.07
2022-10-20T06:12:44.871Z,7.75
2022-10-20T06:14:47.080Z,9.57
2022-10-20T06:16:55.801Z,8.77
2022-10-20T06:18:58.922Z,7.85
2022-10-20T06:21:04.405Z,7.03
2022-10-20T06:23:06.671Z,8.55
2022-10-20T06:25:09.141Z,7.53
2022-10-20T06:27:11.413Z,6.43
2022-10-20T06:29:16.032Z,7.03
2022-10-20T06:31:22.434Z,8.30
2022-10-20T06:33:24.894Z,7.70
2022-10-20T06:35:27.094Z,7.22
2022-10-20T06:37:29.329Z,6.80
2022-10-20T06:39:31.567Z,6.38
2022-10-20T06:41:34.390Z,6.18
2022-10-20T06:43:37.140Z,6.93
2022-10-20T06:45:39.310Z,7.07
2022-10-20T06:47:41.527Z,7.03
2022-10-20T06:49:43.748Z,6.68
2022-10-20T06:51:46.169Z,6.22
2022-10-20T06:53:48.660Z,6.43
2022-10-20T06:56:01.164Z,6.45
2022-10-20T06:58:03.384Z,5.97
2022-10-20T07:00:06.007Z,6.20
2022-10-20T07:02:09.936Z,6.72
2022-10-20T07:04:14.920Z,6.43
2022-10-20T07:06:18.648Z,6.13
2022-10-20T07:08:21.928Z,6.55
2022-10-20T07:10:24.177Z,6.40
2022-10-20T07:12:26.459Z,6.10
2022-10-20T07:14:31.664Z,6.32
2022-10-20T07:16:35.676Z,6.50
2022-10-20T07:18:38.090Z,6.57
2022-10-20T07:20:40.358Z,6.47
2022-10-20T07:22:42.612Z,6.30
2022-10-20T07:24:44.827Z,5.95
2022-10-20T07:26:47.120Z,5.82
2022-10-20T07:28:54.815Z,6.20
2022-10-20T07:30:59.775Z,5.82
2022-10-20T07:33:02.051Z,6.28
2022-10-20T07:35:04.485Z,6.22
2022-10-20T07:37:06.747Z,6.20
2022-10-20T07:39:09.294Z,5.80
2022-10-20T07:41:11.786Z,6.20
2022-10-20T07:43:13.985Z,6.32
2022-10-20T07:45:16.244Z,5.35
2022-10-20T07:47:18.514Z,6.63
2022-10-20T07:51:43.083Z,6.25
2022-10-20T07:53:45.598Z,5.90
2022-10-20T07:55:47.874Z,6.18
2022-10-20T07:57:50.132Z,5.97
2022-10-20T07:59:52.393Z,5.65
2022-10-20T08:01:56.143Z,6.13
2022-10-20T08:04:01.355Z,5.95
2022-10-20T08:06:03.843Z,6.20
2022-10-20T08:08:06.187Z,5.95
2022-10-20T08:10:08.586Z,5.40
2022-10-20T08:12:10.822Z,5.82
2022-10-20T08:14:13.060Z,6.30
2022-10-20T08:16:23.694Z,5.85
2022-10-20T08:18:26.013Z,5.55
2022-10-20T08:20:28.297Z,5.70
2022-10-20T08:22:30.554Z,5.85
2022-10-20T08:24:33.006Z,6.80
2022-10-20T08:26:35.361Z,5.88
2022-10-20T08:28:38.024Z,5.50
2022-10-20T08:30:40.344Z,5.70
2022-10-20T08:32:42.700Z,5.30
2022-10-20T08:34:46.572Z,5.13
2022-10-20T08:36:48.785Z,4.95
2022-10-20T08:38:50.981Z,5.72
2022-10-20T08:40:53.292Z,5.43
2022-10-20T08:42:55.979Z,5.75
2022-10-20T08:45:00.218Z,5.35
2022-10-20T08:47:04.541Z,5.60
2022-10-20T08:49:08.512Z,5.22
2022-10-20T08:51:16.822Z,5.10
2022-10-20T08:53:23.796Z,5.68
2022-10-20T08:55:26.039Z,5.10
2022-10-20T08:57:29.441Z,5.55
2022-10-20T08:59:38.104Z,5.70
2022-10-20T09:01:41.554Z,5.57
2022-10-20T09:03:43.963Z,5.15
2022-10-20T09:05:48.619Z,5.40
2022-10-20T09:07:51.605Z,5.60
2022-10-20T09:09:55.307Z,5.05
2022-10-20T09:12:03.290Z,5.00
2022-10-20T09:14:05.617Z,5.35
2022-10-20T09:16:21.976Z,4.50
2022-10-20T09:18:35.478Z,5.45
2022-10-20T09:20:55.954Z,4.88
2022-10-20T09:22:58.406Z,5.30
2022-10-20T09:25:01.751Z,4.85
2022-10-20T09:27:19.449Z,4.85
2022-10-20T09:29:22.658Z,4.90
2022-10-20T09:31:35.281Z,5.13
2022-10-20T09:33:37.520Z,5.03
2022-10-20T09:35:40.290Z,5.22
2022-10-20T09:37:43.226Z,4.70
2022-10-20T09:39:52.649Z,5.60
2022-10-20T09:44:14.963Z,4.78
2022-10-20T09:46:19.228Z,4.93
2022-10-20T09:48:23.315Z,4.75
2022-10-20T09:50:30.944Z,4.82
2022-10-20T09:52:38.052Z,5.03
2022-10-20T09:54:40.649Z,4.70
2022-10-20T09:56:43.176Z,4.55
2022-10-20T09:58:47.563Z,4.38
2022-10-20T10:00:56.524Z,4.38
2022-10-20T10:03:14.495Z,4.80
2022-10-20T10:05:19.857Z,5.32
2022-10-20T10:07:22.053Z,5.20
2022-10-20T10:09:31.081Z,4.18
2022-10-20T10:11:36.843Z,4.32
2022-10-20T10:13:43.565Z,5.00
2022-10-20T10:15:45.806Z,4.50
2022-10-20T10:17:48.019Z,4.40
2022-10-20T10:19:52.567Z,4.75
2022-10-20T10:21:59.145Z,4.72
2022-10-20T10:24:02.328Z,4.50
2022-10-20T10:26:24.514Z,4.75
2022-10-20T10:28:44.549Z,4.53
2022-10-20T10:30:49.503Z,4.60
2022-10-20T10:32:52.463Z,4.82
2022-10-20T10:34:54.683Z,4.55
2022-10-20T10:36:56.901Z,4.00
2022-10-20T10:38:59.603Z,4.55
2022-10-20T10:41:01.877Z,4.40
2022-10-20T10:43:09.522Z,4.00
2022-10-20T10:45:17.557Z,4.47
2022-10-20T10:47:25.743Z,4.07
2022-10-20T10:49:36.938Z,4.93
2022-10-20T10:52:00.247Z,5.05
2022-10-20T10:54:40.759Z,5.10
2022-10-20T10:56:45.262Z,4.50
2022-10-20T10:58:52.489Z,4.65
2022-10-20T11:00:54.736Z,5.40
2022-10-20T11:03:02.221Z,4.90
2022-10-20T11:05:23.231Z,4.15
2022-10-20T11:07:46.268Z,5.70
2022-10-20T11:10:03.534Z,4.70
2022-10-20T11:12:20.972Z,4.20
2022-10-20T11:14:38.086Z,5.18
2022-10-20T11:16:52.656Z,4.35
2022-10-20T11:19:10.294Z,4.32
2022-10-20T11:21:21.442Z,4.77
2022-10-20T11:23:29.472Z,6.05
2022-10-20T11:25:38.417Z,5.25
2022-10-20T11:27:40.665Z,6.00
2022-10-20T11:29:48.483Z,4.90
2022-10-20T11:32:16.833Z,4.10
2022-10-20T11:36:24.762Z,3.88
2022-10-20T11:38:38.669Z,4.53
2022-10-20T11:40:41.951Z,4.07
2022-10-20T11:43:03.688Z,4.22
2022-10-20T11:45:34.370Z,3.80
2022-10-20T11:47:39.614Z,4.22
2022-10-20T11:49:41.933Z,4.20
2022-10-20T11:51:53.015Z,3.97
2022-10-20T11:53:55.396Z,4.13
2022-10-20T11:56:09.362Z,4.50
2022-10-20T11:58:19.376Z,4.63
2022-10-20T12:00:33.335Z,4.80
2022-10-20T12:02:54.943Z,5.65
2022-10-20T12:05:03.101Z,4.60
2022-10-20T12:07:24.247Z,4.45
2022-10-20T12:09:36.100Z,4.70
2022-10-20T12:11:41.122Z,4.70
2022-10-20T12:13:45.862Z,3.70
2022-10-20T12:15:48.939Z,4.40
2022-10-20T12:17:53.013Z,4.30
2022-10-20T12:20:15.212Z,4.03
2022-10-20T12:22:17.380Z,3.90
2022-10-20T12:24:31.807Z,4.22
2022-10-20T12:26:41.160Z,4.60
2022-10-20T12:28:46.750Z,4.53
2022-10-20T12:31:02.801Z,4.45
2022-10-20T12:33:21.201Z,4.78
2022-10-20T12:37:25.632Z,4.93
2022-10-20T12:39:30.262Z,4.70
2022-10-20T12:41:34.135Z,4.63
2022-10-20T12:43:38.351Z,4.47
2022-10-20T12:45:41.974Z,4.40
2022-10-20T12:47:48.650Z,4.90
2022-10-20T12:50:11.084Z,4.18
2022-10-20T12:52:21.566Z,4.43
2022-10-20T12:54:26.083Z,4.63
2022-10-20T12:56:32.706Z,4.70
2022-10-20T12:58:36.073Z,4.75
2022-10-20T13:00:38.309Z,4.47
2022-10-20T13:02:44.967Z,5.20
2022-10-20T13:04:57.863Z,4.30
2022-10-20T13:07:00.084Z,4.35
2022-10-20T13:09:06.096Z,5.43
2022-10-20T13:11:27.266Z,4.35
2022-10-20T13:13:40.354Z,4.65
2022-10-20T13:15:45.479Z,4.30
2022-10-20T13:17:54.369Z,4.53
2022-10-20T13:20:01.424Z,4.63
2022-10-20T13:22:30.792Z,4.30
2022-10-20T13:24:34.465Z,4.40
2022-10-20T13:26:39.779Z,4.60
2022-10-20T13:28:45.314Z,4.65
2022-10-20T13:30:53.615Z,4.30
2022-10-20T13:35:28.288Z,4.78
2022-10-20T13:37:38.471Z,4.60
2022-10-20T13:39:40.667Z,4.75
2022-10-20T13:41:48.519Z,5.18
2022-10-20T13:43:57.750Z,4.72
2022-10-20T13:46:07.292Z,4.60
2022-10-20T13:48:32.374Z,4.72
2022-10-20T13:50:39.499Z,4.22
2022-10-20T13:52:43.275Z,4.10
2022-10-20T13:54:48.482Z,4.95
2022-10-20T13:56:51.428Z,4.93
2022-10-20T13:59:05.320Z,5.07
2022-10-20T14:01:24.251Z,4.32
2022-10-20T14:03:26.660Z,5.18
2022-10-20T14:05:30.452Z,5.32
2022-10-20T14:07:37.440Z,4.20
2022-10-20T14:09:42.158Z,4.00
2022-10-20T14:13:50.509Z,4.30
2022-10-20T14:15:54.487Z,4.60
2022-10-20T14:17:57.758Z,4.32
2022-10-20T14:20:10.072Z,4.65
2022-10-20T14:22:23.480Z,5.10
2022-10-20T14:24:33.676Z,4.50
2022-10-20T14:26:36.370Z,4.38
2022-10-20T14:28:39.978Z,4.20
2022-10-20T14:30:42.219Z,4.00
2022-10-20T14:32:45.342Z,4.45
2022-10-20T14:34:57.002Z,4.45
2022-10-20T14:36:59.491Z,4.45
2022-10-20T14:39:01.867Z,4.30
2022-10-20T14:41:05.121Z,4.53
2022-10-20T14:43:12.445Z,4.25
2022-10-20T14:45:19.104Z,4.30
2022-10-20T14:47:21.586Z,4.20
2022-10-20T14:49:26.886Z,4.70
2022-10-20T14:51:35.211Z,4.53
2022-10-20T14:53:37.460Z,4.28
2022-10-20T14:55:39.662Z,5.32
2022-10-20T14:57:44.588Z,4.53
2022-10-20T14:59:59.113Z,4.45
2022-10-20T15:02:08.051Z,5.00
2022-10-20T15:04:13.394Z,4.82
2022-10-20T15:06:18.222Z,4.78
2022-10-20T15:08:28.799Z,4.15
2022-10-20T15:10:31.409Z,4.10
2022-10-20T15:12:43.810Z,4.22
2022-10-20T15:14:48.185Z,4.32
2022-10-20T15:16:50.505Z,4.43
2022-10-20T15:19:11.497Z,4.20
2022-10-20T15:21:13.771Z,4.63
2022-10-20T15:23:17.233Z,4.45
2022-10-20T15:25:19.474Z,4.28
2022-10-20T15:27:21.745Z,4.75
2022-10-20T15:29:24.458Z,4.93
2022-10-20T15:31:28.205Z,5.10
2022-10-20T15:33:30.483Z,4.90
2022-10-20T15:35:34.156Z,4.10
2022-10-20T15:37:36.392Z,4.03
2022-10-20T15:39:38.640Z,4.40
2022-10-20T15:41:41.320Z,4.05
2022-10-20T15:43:43.654Z,4.05
2022-10-20T15:45:48.784Z,4.55
2022-10-20T15:47:51.128Z,4.15
2022-10-20T15:49:53.447Z,4.43
2022-10-20T15:51:55.728Z,3.85
2022-10-20T15:53:58.700Z,4.30
2022-10-20T15:56:00.951Z,4.03
2022-10-20T15:58:03.150Z,3.90
2022-10-20T16:00:05.608Z,3.92
2022-10-20T16:02:12.695Z,4.13
2022-10-20T16:04:23.687Z,3.95
2022-10-20T16:06:26.011Z,4.70
2022-10-20T16:08:28.610Z,4.43
2022-10-20T16:10:30.936Z,4.47
2022-10-20T16:12:33.154Z,4.35
2022-10-20T16:14:38.051Z,4.50
2022-10-20T16:16:40.331Z,4.50
2022-10-20T16:18:42.657Z,4.40
2022-10-20T16:20:44.861Z,3.78
2022-10-20T16:22:47.156Z,4.22
2022-10-20T16:24:49.377Z,3.97
2022-10-20T16:26:52.787Z,3.92
2022-10-20T16:28:55.081Z,3.72
2022-10-20T16:31:14.147Z,4.00
2022-10-20T16:33:16.389Z,4.10
2022-10-20T16:35:18.737Z,3.97
2022-10-20T16:37:20.955Z,4.00
2022-10-20T16:39:23.214Z,3.80
2022-10-20T16:41:25.454Z,4.03
2022-10-20T16:43:27.923Z,3.92
2022-10-20T16:45:30.180Z,4.43
2022-10-20T16:47:32.622Z,3.92
2022-10-20T16:49:34.852Z,4.40
2022-10-20T16:51:37.074Z,4.30
2022-10-20T16:53:39.331Z,4.22
2022-10-20T16:55:41.812Z,3.85
2022-10-20T16:57:43.978Z,4.35
2022-10-20T16:59:50.105Z,3.97
2022-10-20T17:01:52.467Z,4.10
2022-10-20T17:03:55.270Z,4.20
2022-10-20T17:05:58.369Z,3.90
2022-10-20T17:08:00.901Z,4.38
2022-10-20T17:10:03.450Z,4.05
2022-10-20T17:12:06.139Z,4.50
2022-10-20T17:14:08.399Z,4.30
2022-10-20T17:16:18.350Z,4.32
2022-10-20T17:18:21.928Z,4.82
2022-10-20T17:20:24.174Z,4.35
2022-10-20T17:22:26.403Z,5.65
2022-10-20T17:24:28.630Z,6.18
2022-10-20T17:26:31.678Z,6.82
2022-10-20T17:28:35.658Z,9.85
2022-10-20T17:30:44.720Z,8.55
2022-10-20T17:32:46.986Z,9.40
2022-10-20T17:34:49.305Z,9.90
2022-10-20T17:36:51.561Z,9.35
2022-10-20T17:38:57.783Z,9.98
2022-10-20T17:41:03.755Z,8.75
2022-10-20T17:43:06.031Z,9.32
2022-10-20T17:45:08.606Z,8.68
2022-10-20T17:47:10.864Z,8.48
2022-10-20T17:49:13.371Z,8.18
2022-10-20T17:54:52.421Z,9.52
2022-10-20T17:56:54.787Z,9.48
2022-10-20T17:58:57.724Z,8.52
2022-10-20T18:01:13.567Z,8.60
2022-10-20T18:03:15.831Z,9.00
2022-10-20T18:05:18.521Z,8.35
2022-10-20T18:07:20.734Z,8.70
2022-10-20T18:09:23.253Z,8.75
2022-10-20T18:11:27.320Z,7.22
2022-10-20T18:13:29.692Z,8.23
2022-10-20T18:15:31.906Z,7.78
2022-10-20T18:17:36.249Z,7.88
2022-10-20T18:19:38.855Z,7.85
2022-10-20T18:21:41.120Z,7.50
2022-10-20T18:23:45.827Z,7.38
2022-10-20T18:25:48.367Z,7.55
2022-10-20T18:27:51.042Z,7.18
2022-10-20T18:29:53.365Z,6.90
2022-10-20T18:31:55.598Z,6.95
2022-10-20T18:35:12.932Z,7.55
2022-10-20T18:37:17.947Z,7.13
2022-10-20T18:39:20.578Z,7.15
2022-10-20T18:41:29.314Z,6.85
2022-10-20T18:45:35.163Z,6.47
2022-10-20T18:47:38.843Z,7.30
2022-10-20T18:49:42.002Z,8.27
